Time;durP1;ratioP1;P1;durP2;ratioP2;P2;SDS_P1;SDS_P2;PMS_P1;PMS_P2;Temp;Humidity;BMP_temperature;BMP_pressure;BME280_temperature;BME280_humidity;BME280_pressure;Samples;Min_cycle;Max_cycle;Signal;HPM_P1;HPM_P2
2022/03/19 00:01:15;;;;;;;12.45;3.75;;;6.40;87.00;;;;;;4978519;28;20030;-64
2022/03/19 00:03:41;;;;;;;14.57;3.40;;;6.40;87.10;;;;;;4979289;28;20499;-64
2022/03/19 00:06:07;;;;;;;14.75;3.15;;;6.40;87.10;;;;;;4977111;28;20046;-64
2022/03/19 00:08:33;;;;;;;10.20;3.35;;;6.30;86.90;;;;;;4974839;28;20490;-64
2022/03/19 00:11:00;;;;;;;14.27;2.88;;;6.30;86.90;;;;;;4973279;28;20039;-64
2022/03/19 00:13:26;;;;;;;9.90;3.30;;;6.30;87.20;;;;;;4981176;28;20710;-63
2022/03/19 00:15:52;;;;;;;12.80;3.72;;;6.30;86.80;;;;;;4976781;28;20030;-64
2022/03/19 00:18:18;;;;;;;12.73;3.55;;;6.30;86.40;;;;;;4977311;28;20042;-64
2022/03/19 00:20:44;;;;;;;8.88;2.92;;;6.30;85.40;;;;;;4971735;28;20054;-64
2022/03/19 00:23:10;;;;;;;10.85;3.17;;;6.30;84.70;;;;;;4981146;28;20108;-64
2022/03/19 00:25:37;;;;;;;10.82;3.22;;;6.20;85.00;;;;;;4978440;28;20033;-64
2022/03/19 00:28:04;;;;;;;13.90;3.60;;;6.10;85.50;;;;;;4976962;28;20112;-64
2022/03/19 00:30:30;;;;;;;12.82;3.20;;;5.90;86.20;;;;;;4974486;28;20034;-64
2022/03/19 00:32:55;;;;;;;9.38;2.63;;;5.90;86.10;;;;;;4975617;28;20029;-64
2022/03/19 00:35:21;;;;;;;8.82;3.40;;;5.90;86.20;;;;;;4980018;28;20022;-65
2022/03/19 00:37:50;;;;;;;7.05;2.90;;;5.80;86.50;;;;;;4977291;28;20836;-64
2022/03/19 00:40:18;;;;;;;10.73;3.42;;;5.70;86.80;;;;;;4976470;28;20085;-64
2022/03/19 00:42:44;;;;;;;10.70;3.03;;;5.60;87.10;;;;;;4973056;28;20026;-64
2022/03/19 00:45:11;;;;;;;14.20;3.17;;;5.50;87.60;;;;;;4979494;28;20133;-64
2022/03/19 00:47:37;;;;;;;15.57;3.03;;;5.40;87.60;;;;;;4978182;28;20034;-64
2022/03/19 00:50:04;;;;;;;7.53;3.13;;;5.40;87.80;;;;;;4976478;28;20061;-64
2022/03/19 00:52:30;;;;;;;11.63;3.13;;;5.40;88.10;;;;;;4976854;28;20049;-64
2022/03/19 00:54:56;;;;;;;12.43;3.70;;;5.30;88.40;;;;;;4975655;28;20037;-64
2022/03/19 00:57:22;;;;;;;14.25;3.17;;;5.30;88.20;;;;;;4979296;28;20034;-64
2022/03/19 00:59:48;;;;;;;11.18;2.95;;;5.30;88.20;;;;;;4975780;28;20129;-64
2022/03/19 01:02:13;;;;;;;13.40;3.60;;;5.30;88.50;;;;;;4978868;28;20105;-64
2022/03/19 01:04:39;;;;;;;13.05;3.22;;;5.20;87.90;;;;;;4970898;28;20180;-64
2022/03/19 01:07:05;;;;;;;12.23;2.80;;;5.20;87.70;;;;;;4979511;28;20027;-64
2022/03/19 01:09:30;;;;;;;13.35;3.47;;;5.20;87.40;;;;;;4975912;28;20031;-64
2022/03/19 01:11:56;;;;;;;12.52;3.05;;;5.20;87.70;;;;;;4974624;28;20199;-65
2022/03/19 01:14:22;;;;;;;13.23;3.08;;;5.20;87.40;;;;;;4974094;28;20036;-64
2022/03/19 01:16:47;;;;;;;13.57;3.03;;;5.10;87.00;;;;;;4973801;28;20084;-64
2022/03/19 01:19:13;;;;;;;11.98;2.40;;;5.10;87.10;;;;;;4978975;28;20433;-64
2022/03/19 01:21:39;;;;;;;11.93;2.72;;;5.00;87.20;;;;;;4975296;28;20038;-64
2022/03/19 01:24:07;;;;;;;8.95;2.53;;;5.00;87.50;;;;;;4975422;28;20033;-64
2022/03/19 01:26:32;;;;;;;11.18;2.70;;;4.90;87.40;;;;;;4970888;28;20142;-64
2022/03/19 01:28:59;;;;;;;10.93;3.08;;;4.90;87.50;;;;;;4978890;28;20040;-65
2022/03/19 01:31:27;;;;;;;8.38;2.55;;;4.90;87.30;;;;;;4978279;28;20053;-64
2022/03/19 01:33:53;;;;;;;8.70;2.28;;;4.80;87.30;;;;;;4973678;28;20119;-64
2022/03/19 01:36:19;;;;;;;14.15;2.53;;;4.80;87.70;;;;;;4973671;28;20097;-64
2022/03/19 01:38:45;;;;;;;9.98;2.60;;;4.80;88.60;;;;;;4978609;28;20592;-64
2022/03/19 01:41:10;;;;;;;8.90;2.25;;;4.80;88.00;;;;;;4978926;28;20034;-64
2022/03/19 01:43:37;;;;;;;8.50;2.33;;;4.70;87.80;;;;;;4975671;28;20042;-64
2022/03/19 01:46:03;;;;;;;13.43;3.50;;;4.60;88.00;;;;;;4972685;28;20069;-64
2022/03/19 01:48:28;;;;;;;14.27;3.08;;;4.60;88.50;;;;;;4971963;28;20118;-64
2022/03/19 01:50:54;;;;;;;9.50;2.75;;;4.50;88.90;;;;;;4978478;28;20112;-64
2022/03/19 01:53:20;;;;;;;9.80;2.75;;;4.40;89.40;;;;;;4979381;28;20571;-64
2022/03/19 01:55:46;;;;;;;8.82;2.85;;;4.30;89.80;;;;;;4974631;28;20027;-64
2022/03/19 01:58:11;;;;;;;8.82;3.40;;;4.30;90.10;;;;;;4978309;28;20128;-63
2022/03/19 02:00:38;;;;;;;10.88;3.00;;;4.20;90.30;;;;;;4982107;28;20026;-64
2022/03/19 02:03:05;;;;;;;12.75;3.78;;;4.20;90.40;;;;;;4981706;28;20046;-64
2022/03/19 02:05:31;;;;;;;8.43;2.85;;;4.20;90.50;;;;;;4978987;28;20475;-66
2022/03/19 02:07:57;;;;;;;9.02;3.22;;;4.10;90.60;;;;;;4977452;28;20042;-64
2022/03/19 02:10:23;;;;;;;6.32;2.53;;;4.10;90.70;;;;;;4977386;28;20033;-64
2022/03/19 02:12:50;;;;;;;12.00;3.70;;;4.00;90.80;;;;;;4981853;28;20088;-64
2022/03/19 02:15:16;;;;;;;14.35;3.00;;;4.00;91.00;;;;;;4977919;28;20594;-63
2022/03/19 02:17:43;;;;;;;12.95;2.60;;;3.90;91.10;;;;;;4979537;28;20042;-64
2022/03/19 02:20:09;;;;;;;11.93;3.58;;;3.90;91.20;;;;;;4979860;28;20037;-63
2022/03/19 02:22:35;;;;;;;15.32;3.35;;;3.90;91.30;;;;;;4980515;28;20038;-65
2022/03/19 02:27:45;;;;;;;14.43;4.00;;;3.80;91.50;;;;;;4976126;28;20031;-65
2022/03/19 02:30:14;;;;;;;16.95;4.28;;;3.80;91.60;;;;;;4977585;28;20060;-64
2022/03/19 02:32:42;;;;;;;7.63;3.17;;;3.70;91.70;;;;;;4975677;28;20030;-64
2022/03/19 02:35:09;;;;;;;10.50;3.47;;;3.70;91.70;;;;;;4981695;28;20046;-64
2022/03/19 02:37:43;;;;;;;9.60;3.63;;;3.70;91.80;;;;;;4980051;28;20165;-65
2022/03/19 02:40:12;;;;;;;12.45;4.10;;;3.70;91.90;;;;;;4976632;28;20042;-64
2022/03/19 02:42:38;;;;;;;16.40;4.78;;;3.60;92.00;;;;;;4972512;28;20059;-64
2022/03/19 02:45:05;;;;;;;16.85;5.05;;;3.60;92.20;;;;;;4982285;28;20034;-64
2022/03/19 02:47:32;;;;;;;14.85;5.63;;;3.50;92.40;;;;;;4978854;28;20117;-66
2022/03/19 02:49:58;;;;;;;18.45;5.53;;;3.50;92.60;;;;;;4977902;28;20035;-64
2022/03/19 02:52:24;;;;;;;16.05;4.82;;;3.50;92.60;;;;;;4984326;28;20439;-64
2022/03/19 02:54:50;;;;;;;16.98;5.80;;;3.50;92.70;;;;;;4983255;28;20117;-64
2022/03/19 02:57:16;;;;;;;14.13;5.70;;;3.40;92.90;;;;;;4982143;28;20034;-66
2022/03/19 02:59:41;;;;;;;15.88;5.53;;;3.40;93.00;;;;;;4978670;28;20916;-64
2022/03/19 03:02:10;;;;;;;14.85;5.63;;;3.40;93.10;;;;;;4978700;28;20069;-64
2022/03/19 03:04:35;;;;;;;13.98;5.38;;;3.40;93.10;;;;;;4977047;28;20046;-65
2022/03/19 03:07:03;;;;;;;18.42;6.90;;;3.30;93.10;;;;;;4982066;28;20034;-64
2022/03/19 03:09:30;;;;;;;15.80;5.75;;;3.30;93.10;;;;;;4978731;28;20454;-63
2022/03/19 03:11:58;;;;;;;14.55;5.88;;;3.30;93.30;;;;;;4980042;28;20431;-65
2022/03/19 03:14:24;;;;;;;16.95;6.47;;;3.20;93.40;;;;;;4975911;28;20391;-65
2022/03/19 03:16:52;;;;;;;15.05;5.18;;;3.20;93.50;;;;;;4979745;28;20061;-63
2022/03/19 03:19:18;;;;;;;13.30;5.47;;;3.20;93.50;;;;;;4981235;28;20125;-65
2022/03/19 03:21:45;;;;;;;14.63;5.97;;;3.10;93.60;;;;;;4976831;28;20059;-64
2022/03/19 03:24:12;;;;;;;15.93;6.32;;;3.10;93.70;;;;;;4978085;28;20056;-66
2022/03/19 03:26:38;;;;;;;14.65;5.47;;;3.10;93.70;;;;;;4976127;28;20034;-66
2022/03/19 03:29:06;;;;;;;15.38;5.32;;;3.10;93.70;;;;;;4981238;28;20026;-66
2022/03/19 03:31:32;;;;;;;13.07;5.30;;;3.00;93.70;;;;;;4980916;28;20031;-65
2022/03/19 03:33:59;;;;;;;18.77;5.97;;;3.00;93.70;;;;;;4977026;28;20369;-66
2022/03/19 03:36:25;;;;;;;15.60;5.35;;;2.90;93.80;;;;;;4974401;28;20030;-66
2022/03/19 03:38:50;;;;;;;16.25;5.38;;;2.90;93.80;;;;;;4981001;28;20030;-66
2022/03/19 03:41:16;;;;;;;13.82;5.60;;;2.90;94.10;;;;;;4980507;28;20034;-66
2022/03/19 03:43:42;;;;;;;14.32;4.65;;;2.90;93.90;;;;;;4976167;28;20031;-66
2022/03/19 03:46:08;;;;;;;12.57;4.53;;;2.80;93.80;;;;;;4976454;28;20097;-66
2022/03/19 03:48:35;;;;;;;13.98;5.25;;;2.80;93.90;;;;;;4975744;28;20041;-66
2022/03/19 03:51:01;;;;;;;15.38;5.47;;;2.80;94.00;;;;;;4980423;28;20455;-65
2022/03/19 03:53:28;;;;;;;14.90;5.93;;;2.70;93.90;;;;;;4977028;28;20461;-66
2022/03/19 03:55:54;;;;;;;14.90;4.78;;;2.80;94.10;;;;;;4974701;28;20480;-66
2022/03/19 03:58:21;;;;;;;14.43;4.82;;;2.70;94.00;;;;;;4974191;28;20052;-66
2022/03/19 04:00:46;;;;;;;19.65;5.65;;;2.70;94.00;;;;;;4978001;28;20037;-65
2022/03/19 04:03:12;;;;;;;13.35;4.50;;;2.70;94.00;;;;;;4979586;28;20034;-66
2022/03/19 04:05:38;;;;;;;19.25;5.15;;;2.70;94.10;;;;;;4975610;28;20038;-66
2022/03/19 04:08:05;;;;;;;17.45;5.68;;;2.60;94.10;;;;;;4975655;28;20034;-67
2022/03/19 04:10:31;;;;;;;18.98;5.50;;;2.60;94.20;;;;;;4978324;28;20092;-66
2022/03/19 04:12:58;;;;;;;17.30;5.63;;;2.60;94.20;;;;;;4979313;28;20056;-63
2022/03/19 04:15:24;;;;;;;13.95;5.40;;;2.50;94.20;;;;;;4978439;28;20380;-66
2022/03/19 04:17:50;;;;;;;11.70;5.53;;;2.50;94.20;;;;;;4973224;28;20042;-66
2022/03/19 04:20:16;;;;;;;16.45;6.22;;;2.50;94.20;;;;;;4974942;28;20031;-66
2022/03/19 04:22:47;;;;;;;13.98;6.25;;;2.50;94.30;;;;;;4980275;28;20037;-66
2022/03/19 04:25:17;;;;;;;15.88;6.57;;;2.50;94.40;;;;;;4982909;28;20036;-66
2022/03/19 04:27:45;;;;;;;13.35;5.80;;;2.40;94.40;;;;;;4984107;28;20034;-66
2022/03/19 04:30:13;;;;;;;12.85;5.80;;;2.40;94.40;;;;;;4969186;28;20044;-66
2022/03/19 04:32:50;;;;;;;18.88;6.68;;;2.40;94.40;;;;;;4978617;28;20038;-65
2022/03/19 04:38:08;;;;;;;16.42;7.25;;;2.30;94.60;;;;;;4979826;28;20664;-66
2022/03/19 04:40:35;;;;;;;17.90;6.40;;;2.30;94.60;;;;;;4985290;28;20046;-66
2022/03/19 04:43:02;;;;;;;16.05;6.82;;;2.30;94.60;;;;;;4976153;28;20116;-66
2022/03/19 04:45:28;;;;;;;12.85;6.22;;;2.30;94.60;;;;;;4979248;28;20039;-65
2022/03/19 04:47:54;;;;;;;18.83;5.78;;;2.30;94.60;;;;;;4978616;28;20027;-66
2022/03/19 04:50:20;;;;;;;17.40;6.95;;;2.20;94.60;;;;;;4974919;28;20038;-65
2022/03/19 04:52:47;;;;;;;14.80;6.32;;;2.20;94.50;;;;;;4981465;28;20117;-65
2022/03/19 04:55:13;;;;;;;17.75;7.60;;;2.20;94.60;;;;;;4983233;28;20111;-66
2022/03/19 04:57:39;;;;;;;13.43;6.70;;;2.20;94.60;;;;;;4987911;28;20209;-65
2022/03/19 05:00:07;;;;;;;18.90;7.38;;;2.10;94.70;;;;;;4976623;28;20030;-66
2022/03/19 05:02:33;;;;;;;21.15;7.35;;;2.10;94.70;;;;;;4989777;28;20038;-65
2022/03/19 05:05:00;;;;;;;18.83;8.05;;;2.10;94.80;;;;;;4987702;28;20080;-66
2022/03/19 05:07:26;;;;;;;14.02;6.32;;;2.10;94.80;;;;;;4982907;28;20026;-65
2022/03/19 05:12:41;;;;;;;19.70;7.78;;;2.10;94.80;;;;;;4993836;28;20022;-66
2022/03/19 05:15:10;;;;;;;18.00;7.50;;;2.10;94.90;;;;;;4976260;28;20050;-66
2022/03/19 05:17:37;;;;;;;15.75;6.72;;;2.10;94.90;;;;;;4978709;28;20034;-66
2022/03/19 05:20:04;;;;;;;15.38;7.18;;;2.10;94.90;;;;;;4982005;28;20039;-65
2022/03/19 05:22:30;;;;;;;16.17;6.75;;;2.00;94.80;;;;;;4977595;28;20038;-66
2022/03/19 05:24:57;;;;;;;20.23;7.50;;;2.00;94.70;;;;;;4982688;28;20076;-66
2022/03/19 05:27:24;;;;;;;14.85;7.70;;;2.10;94.90;;;;;;4984365;28;20065;-65
2022/03/19 05:29:50;;;;;;;17.10;7.55;;;2.10;94.80;;;;;;4980209;28;20049;-65
2022/03/19 05:32:17;;;;;;;15.80;7.10;;;2.10;94.70;;;;;;4993305;28;20061;-66
2022/03/19 05:34:43;;;;;;;15.15;7.20;;;2.10;94.70;;;;;;4982681;28;20040;-65
2022/03/19 05:37:12;;;;;;;22.58;7.63;;;2.10;94.70;;;;;;4980509;28;20038;-65
2022/03/19 05:39:38;;;;;;;16.20;7.70;;;2.20;94.70;;;;;;4982070;28;20623;-66
2022/03/19 05:42:05;;;;;;;17.05;7.75;;;2.20;94.60;;;;;;4979866;28;20030;-65
2022/03/19 05:44:31;;;;;;;17.42;8.65;;;2.30;94.60;;;;;;4982285;28;20582;-66
2022/03/19 05:47:00;;;;;;;13.00;7.10;;;2.30;94.50;;;;;;4975236;28;20879;-66
2022/03/19 05:49:29;;;;;;;18.85;7.63;;;2.40;94.40;;;;;;4987693;28;20034;-66
2022/03/19 05:51:57;;;;;;;22.85;8.45;;;2.50;94.30;;;;;;4986701;28;20030;-66
2022/03/19 05:54:24;;;;;;;19.15;7.78;;;2.50;94.20;;;;;;4986029;28;20042;-66
2022/03/19 05:56:49;;;;;;;21.55;7.90;;;2.60;94.00;;;;;;4982740;28;20054;-66
2022/03/19 05:59:15;;;;;;;18.60;8.18;;;2.70;93.90;;;;;;4987697;28;20166;-66
2022/03/19 06:01:44;;;;;;;16.52;7.38;;;2.70;93.90;;;;;;4986145;28;20034;-66
2022/03/19 06:04:10;;;;;;;15.27;6.75;;;2.80;94.20;;;;;;4986069;28;20026;-65
2022/03/19 06:06:36;;;;;;;17.52;7.18;;;2.90;93.90;;;;;;4991045;28;20371;-65
2022/03/19 06:09:02;;;;;;;15.65;7.30;;;3.00;93.90;;;;;;4981359;28;20117;-66
2022/03/19 06:11:28;;;;;;;19.13;7.90;;;3.10;93.90;;;;;;4982741;28;20172;-66
2022/03/19 06:13:54;;;;;;;18.10;6.90;;;3.20;93.90;;;;;;4981862;28;20042;-66
2022/03/19 06:16:20;;;;;;;22.48;8.00;;;3.20;93.70;;;;;;4989263;28;20040;-67
2022/03/19 06:18:50;;;;;;;15.82;7.28;;;3.30;93.70;;;;;;4975645;28;20035;-64
2022/03/19 06:21:18;;;;;;;15.13;6.85;;;3.40;93.60;;;;;;4986926;28;20435;-63
2022/03/19 06:23:45;;;;;;;18.08;6.07;;;3.50;93.50;;;;;;4988627;28;20037;-64
2022/03/19 06:26:11;;;;;;;17.88;6.95;;;3.60;93.40;;;;;;4988557;28;20042;-64
2022/03/19 06:28:37;;;;;;;18.70;6.63;;;3.70;93.10;;;;;;4990929;28;20065;-63
2022/03/19 06:31:03;;;;;;;25.58;8.35;;;3.80;93.10;;;;;;5011302;28;20069;-64
2022/03/19 06:33:29;;;;;;;18.38;8.50;;;3.90;93.10;;;;;;4988130;28;20093;-63
2022/03/19 06:38:39;;;;;;;15.90;6.15;;;4.10;92.90;;;;;;4977557;28;20117;-64
2022/03/19 06:41:05;;;;;;;16.35;6.30;;;4.20;92.60;;;;;;4975577;28;20092;-64
2022/03/19 06:43:31;;;;;;;14.25;7.32;;;4.30;92.50;;;;;;4985995;28;20041;-64
2022/03/19 06:45:59;;;;;;;15.50;6.50;;;4.40;92.40;;;;;;4981803;28;20034;-64
2022/03/19 06:48:26;;;;;;;16.58;5.72;;;4.50;92.40;;;;;;4985131;28;20081;-64
2022/03/19 06:50:53;;;;;;;19.15;5.18;;;4.70;92.30;;;;;;4982317;28;20029;-64
2022/03/19 06:53:19;;;;;;;11.52;5.00;;;4.80;92.00;;;;;;4988034;28;20034;-64
2022/03/19 06:55:45;;;;;;;13.38;5.93;;;4.90;91.70;;;;;;4982254;28;20022;-64
2022/03/19 06:58:11;;;;;;;11.93;5.22;;;5.10;91.10;;;;;;4987884;28;20534;-64
2022/03/19 07:00:37;;;;;;;17.55;5.30;;;5.20;90.90;;;;;;4991080;28;20112;-64
2022/03/19 07:03:03;;;;;;;9.90;4.75;;;5.40;90.60;;;;;;4976848;28;20065;-66
2022/03/19 07:05:31;;;;;;;12.65;5.22;;;5.50;90.20;;;;;;4986537;28;20461;-64
2022/03/19 07:07:57;;;;;;;12.63;5.15;;;5.60;90.00;;;;;;4979704;28;20093;-64
2022/03/19 07:10:23;;;;;;;13.82;3.97;;;5.70;89.30;;;;;;4985996;28;20045;-64
2022/03/19 07:12:52;;;;;;;11.30;4.20;;;5.90;88.80;;;;;;4987028;28;20094;-64
2022/03/19 07:15:21;;;;;;;15.88;3.90;;;6.00;88.10;;;;;;4979240;28;20038;-64
2022/03/19 07:17:48;;;;;;;11.35;3.88;;;6.30;87.20;;;;;;4985352;28;20531;-64
2022/03/19 07:20:14;;;;;;;16.08;4.80;;;7.50;85.00;;;;;;4985657;28;20038;-64
2022/03/19 07:23:13;;;;;;;13.50;3.20;;;8.80;78.20;;;;;;4985435;28;20403;-64
2022/03/19 07:25:40;;;;;;;15.00;3.35;;;10.90;70.50;;;;;;4972051;28;20042;-64
2022/03/19 07:28:08;;;;;;;9.18;2.88;;;12.90;60.50;;;;;;4988836;28;20467;-63
2022/03/19 07:30:34;;;;;;;9.70;3.25;;;13.30;57.30;;;;;;4985604;28;20034;-64
2022/03/19 07:33:00;;;;;;;9.40;3.22;;;13.90;55.80;;;;;;4984759;28;20112;-65
2022/03/19 07:35:27;;;;;;;12.27;2.88;;;15.70;50.60;;;;;;4981730;28;20022;-65
2022/03/19 07:37:53;;;;;;;8.95;2.67;;;16.60;47.20;;;;;;4982859;28;20113;-66
2022/03/19 07:43:07;;;;;;;7.13;2.70;;;20.60;40.50;;;;;;4979532;28;20451;-64
2022/03/19 07:45:34;;;;;;;13.95;3.08;;;23.40;33.90;;;;;;4988864;28;20043;-65
2022/03/19 07:47:59;;;;;;;8.77;2.60;;;24.10;32.70;;;;;;4994379;28;20149;-65
2022/03/19 07:50:26;;;;;;;7.45;2.50;;;23.90;31.50;;;;;;4983921;28;20049;-65
2022/03/19 07:52:52;;;;;;;7.30;2.50;;;23.20;32.20;;;;;;4979976;28;20034;-65
2022/03/19 07:55:18;;;;;;;7.15;2.78;;;23.10;32.60;;;;;;4981117;28;20193;-65
2022/03/19 07:57:44;;;;;;;7.35;2.40;;;23.10;32.60;;;;;;4986430;28;20148;-65
2022/03/19 08:00:12;;;;;;;8.43;2.65;;;23.70;31.90;;;;;;4986143;28;20034;-65
2022/03/19 08:02:41;;;;;;;5.45;2.45;;;24.80;30.70;;;;;;4985248;28;20045;-65
2022/03/19 08:05:08;;;;;;;6.88;2.53;;;26.60;29.70;;;;;;4991784;28;20031;-65
2022/03/19 08:07:34;;;;;;;6.72;2.63;;;28.00;28.40;;;;;;4995640;28;20040;-65
2022/03/19 08:10:01;;;;;;;7.72;3.00;;;28.30;27.30;;;;;;4980491;28;20073;-66
2022/03/19 08:12:27;;;;;;;6.47;2.20;;;28.20;27.30;;;;;;4988222;28;20030;-65
2022/03/19 08:14:55;;;;;;;6.57;2.88;;;27.80;27.00;;;;;;4977141;28;20043;-65
2022/03/19 08:17:20;;;;;;;8.55;2.88;;;27.30;27.40;;;;;;4976530;28;20026;-65
2022/03/19 08:19:46;;;;;;;8.05;2.70;;;26.40;28.10;;;;;;4981134;28;20049;-65
2022/03/19 08:22:12;;;;;;;8.82;2.80;;;25.10;29.00;;;;;;4990819;28;20027;-65
2022/03/19 08:24:38;;;;;;;7.43;2.45;;;23.80;30.30;;;;;;4983624;28;20045;-65
2022/03/19 08:27:04;;;;;;;10.60;2.90;;;22.50;31.70;;;;;;4982209;28;20820;-65
2022/03/19 08:29:29;;;;;;;8.43;2.20;;;21.40;33.20;;;;;;4979434;28;20069;-65
2022/03/19 08:31:56;;;;;;;9.90;2.80;;;19.60;36.10;;;;;;4989898;28;20053;-65
2022/03/19 08:34:22;;;;;;;4.88;2.30;;;18.10;38.70;;;;;;4979703;28;20023;-65
2022/03/19 08:36:48;;;;;;;6.90;2.20;;;17.70;40.60;;;;;;4982874;28;20030;-64
2022/03/19 08:41:59;;;;;;;8.82;2.42;;;20.40;36.40;;;;;;4979589;28;20066;-64
2022/03/19 08:44:26;;;;;;;7.97;2.70;;;21.70;33.70;;;;;;4979808;28;20040;-64
2022/03/19 08:46:52;;;;;;;6.78;2.50;;;23.20;31.80;;;;;;4975977;28;20031;-65
2022/03/19 08:49:19;;;;;;;10.93;2.40;;;24.00;31.00;;;;;;4971371;28;20257;-64
2022/03/19 08:51:45;;;;;;;7.45;2.30;;;25.10;29.80;;;;;;4977114;28;20026;-65
2022/03/19 08:54:17;;;;;;;7.95;2.17;;;23.10;30.60;;;;;;4969424;28;20077;-63
2022/03/19 08:56:45;;;;;;;8.73;2.17;;;20.70;33.90;;;;;;4981218;28;20030;-67
2022/03/19 08:59:11;;;;;;;11.88;2.28;;;19.80;35.60;;;;;;4979494;28;20822;-65
2022/03/19 09:02:31;;;;;;;5.45;1.90;;;21.40;33.60;;;;;;5076291;27;20380;-64
2022/03/19 09:04:57;;;;;;;5.78;1.95;;;23.90;30.00;;;;;;5086027;28;20028;-64
2022/03/19 09:07:23;;;;;;;6.43;1.80;;;23.10;29.70;;;;;;5086374;28;20024;-63
2022/03/19 09:09:52;;;;;;;6.80;1.88;;;23.40;30.00;;;;;;5085274;28;20519;-64
2022/03/19 09:12:20;;;;;;;11.10;2.15;;;24.60;29.00;;;;;;5089889;28;20044;-64
2022/03/19 09:14:46;;;;;;;7.25;2.00;;;26.40;27.80;;;;;;5089106;28;20035;-64
2022/03/19 09:17:12;;;;;;;4.78;1.52;;;27.80;26.20;;;;;;5090696;28;20020;-64
2022/03/19 09:19:38;;;;;;;6.07;2.00;;;29.60;25.60;;;;;;5090494;28;20039;-64
2022/03/19 09:22:03;;;;;;;7.35;2.08;;;29.10;25.00;;;;;;5094336;28;20085;-64
2022/03/19 09:24:29;;;;;;;5.18;1.63;;;30.10;24.50;;;;;;5086111;28;20029;-64
2022/03/19 09:26:55;;;;;;;9.45;2.13;;;31.40;24.00;;;;;;5086502;28;20488;-64
2022/03/19 09:29:20;;;;;;;8.40;2.10;;;32.80;23.40;;;;;;5088860;28;20028;-64
2022/03/19 09:31:46;;;;;;;8.73;2.00;;;32.90;23.60;;;;;;5091538;28;20031;-67
2022/03/19 09:34:12;;;;;;;6.53;1.88;;;32.40;23.00;;;;;;5070727;28;20122;-64
2022/03/19 09:36:40;;;;;;;6.85;2.15;;;31.10;23.50;;;;;;5084349;28;20116;-66
2022/03/19 09:39:06;;;;;;;7.10;2.10;;;27.30;25.60;;;;;;5087652;28;20044;-64
2022/03/19 09:41:31;;;;;;;4.78;1.73;;;23.20;29.10;;;;;;5088638;28;20771;-65
2022/03/19 09:44:01;;;;;;;6.43;1.98;;;20.80;32.80;;;;;;5089478;28;20527;-65
2022/03/19 09:46:27;;;;;;;7.10;1.70;;;21.00;33.00;;;;;;5088437;28;20032;-66
2022/03/19 09:48:53;;;;;;;8.93;2.00;;;23.80;29.80;;;;;;5082469;28;20471;-64
2022/03/19 09:51:19;;;;;;;5.43;1.70;;;26.60;26.80;;;;;;5071620;28;20135;-64
2022/03/19 09:53:46;;;;;;;6.15;1.88;;;27.30;26.50;;;;;;5090202;28;20161;-64
2022/03/19 09:56:12;;;;;;;7.55;1.90;;;25.50;27.10;;;;;;5095360;28;20039;-64
2022/03/19 09:58:38;;;;;;;7.63;2.03;;;23.00;30.00;;;;;;5087911;28;20032;-64
2022/03/19 10:01:05;;;;;;;8.02;1.75;;;22.40;30.70;;;;;;5088276;28;20117;-64
2022/03/19 10:03:38;;;;;;;4.93;1.75;;;24.10;28.70;;;;;;5089643;28;20039;-64
2022/03/19 10:08:58;;;;;;;3.28;1.40;;;28.90;25.60;;;;;;5085684;28;20031;-64
2022/03/19 10:11:29;;;;;;;4.93;1.67;;;28.80;25.20;;;;;;5086130;28;20071;-64
2022/03/19 10:13:55;;;;;;;8.60;1.83;;;28.50;25.70;;;;;;5070855;28;20148;-65
2022/03/19 10:16:28;;;;;;;3.50;1.10;;;29.80;24.70;;;;;;5078129;28;20480;-64
2022/03/19 10:19:02;;;;;;;7.03;1.92;;;30.50;23.90;;;;;;5075289;28;20066;-65
2022/03/19 10:21:29;;;;;;;6.75;1.60;;;31.30;23.60;;;;;;5075933;28;20044;-65
2022/03/19 10:23:59;;;;;;;6.97;1.77;;;31.00;22.90;;;;;;5074012;28;20869;-65
2022/03/19 10:26:35;;;;;;;7.68;1.50;;;30.50;23.30;;;;;;5069316;28;20031;-64
2022/03/19 10:29:04;;;;;;;6.85;1.50;;;28.20;24.90;;;;;;5074018;28;20032;-70
2022/03/19 10:31:34;;;;;;;6.47;1.73;;;27.60;25.00;;;;;;5072505;28;20535;-69
2022/03/19 10:34:00;;;;;;;5.25;1.20;;;25.10;26.80;;;;;;5058595;28;20033;-72
2022/03/19 10:36:37;;;;;;;6.43;1.35;;;25.30;27.40;;;;;;5077527;28;20047;-66
2022/03/19 10:39:10;;;;;;;6.88;1.30;;;26.50;25.70;;;;;;5078768;28;20040;-66
2022/03/19 10:41:37;;;;;;;5.22;1.35;;;29.30;24.60;;;;;;5072455;28;20046;-66
2022/03/19 10:44:16;;;;;;;3.78;1.30;;;32.50;22.90;;;;;;5074514;28;20029;-66
2022/03/19 10:46:59;;;;;;;3.78;1.33;;;32.10;21.90;;;;;;5075708;28;20036;-66
2022/03/19 10:49:27;;;;;;;5.32;1.50;;;31.10;22.20;;;;;;5072552;28;20028;-65
2022/03/19 10:51:55;;;;;;;4.55;1.50;;;30.70;23.10;;;;;;5076979;28;20036;-66
2022/03/19 10:54:22;;;;;;;3.75;1.55;;;30.50;23.30;;;;;;5062563;28;20036;-66
2022/03/19 10:56:49;;;;;;;8.00;1.75;;;29.70;23.30;;;;;;5073101;28;20031;-65
2022/03/19 10:59:15;;;;;;;7.35;1.60;;;28.80;23.50;;;;;;5080502;28;20111;-65
2022/03/19 11:01:44;;;;;;;5.97;1.77;;;28.80;23.40;;;;;;5070409;28;20036;-65
2022/03/19 11:04:11;;;;;;;7.35;2.05;;;26.70;24.60;;;;;;5071307;28;20439;-66
2022/03/19 11:06:42;;;;;;;4.78;1.58;;;24.20;27.10;;;;;;5076913;28;20032;-66
2022/03/19 11:09:10;;;;;;;6.28;1.90;;;26.20;25.30;;;;;;5072796;28;20035;-65
2022/03/19 11:11:55;;;;;;;6.05;1.58;;;27.30;23.80;;;;;;5059976;28;20032;-66
2022/03/19 11:14:25;;;;;;;7.38;1.80;;;25.10;25.50;;;;;;5054051;28;20578;-66
2022/03/19 11:17:24;;;;;;;6.10;1.60;;;24.40;25.60;;;;;;5073452;28;20044;-66
2022/03/19 11:19:54;;;;;;;7.78;1.95;;;22.40;28.10;;;;;;5073522;28;20035;-67
2022/03/19 11:22:21;;;;;;;4.28;1.77;;;20.00;30.70;;;;;;5071490;28;20032;-73
2022/03/19 11:25:11;;;;;;;6.68;1.88;;;18.40;33.30;;;;;;5076953;28;20973;-73
2022/03/19 11:27:38;;;;;;;7.57;1.80;;;17.00;35.60;;;;;;5069007;28;20122;-73
2022/03/19 11:30:06;;;;;;;3.58;1.60;;;16.10;38.00;;;;;;5078175;28;20062;-73
2022/03/19 11:32:32;;;;;;;6.03;2.00;;;15.90;38.40;;;;;;5076725;28;20040;-73
2022/03/19 11:34:59;;;;;;;5.53;1.60;;;16.10;37.90;;;;;;5067895;28;20051;-74
2022/03/19 11:38:11;;;;;;;2.72;1.65;;;16.30;36.80;;;;;;5078170;28;20080;-73
2022/03/19 11:40:39;;;;;;;6.32;1.60;;;16.40;36.50;;;;;;5061520;28;20071;-68
2022/03/19 11:43:05;;;;;;;4.10;1.88;;;16.10;36.40;;;;;;5073001;28;20099;-72
2022/03/19 11:45:55;;;;;;;3.97;1.67;;;16.00;37.20;;;;;;5072891;28;20052;-72
2022/03/19 11:48:36;;;;;;;4.63;1.65;;;15.90;37.20;;;;;;5071255;28;20032;-70
2022/03/19 11:51:50;;;;;;;4.55;1.90;;;15.60;38.30;;;;;;5068934;28;20175;-75
2022/03/19 11:54:17;;;;;;;8.00;2.45;;;15.30;39.40;;;;;;5026645;28;20054;-74
2022/03/19 11:56:44;;;;;;;5.35;2.45;;;15.20;39.70;;;;;;5067585;28;20090;-74
2022/03/19 11:59:15;;;;;;;6.45;2.45;;;15.10;40.60;;;;;;5070271;28;20036;-74
2022/03/19 12:01:54;;;;;;;6.38;3.03;;;14.50;41.00;;;;;;5076390;28;20058;-74
2022/03/19 12:04:21;;;;;;;8.35;2.42;;;14.10;42.50;;;;;;5056931;28;20089;-74
2022/03/19 12:06:51;;;;;;;7.05;3.10;;;13.40;43.50;;;;;;5072852;28;20028;-74
2022/03/19 12:09:17;;;;;;;6.93;2.60;;;13.10;45.00;;;;;;5074732;28;20021;-74
2022/03/19 12:12:06;;;;;;;7.95;2.65;;;13.10;45.50;;;;;;5071991;28;20038;-74
2022/03/19 12:14:33;;;;;;;9.38;2.92;;;13.30;45.40;;;;;;5071164;28;20920;-74
2022/03/19 12:17:21;;;;;;;7.20;2.70;;;13.50;44.30;;;;;;5079492;28;20028;-74
2022/03/19 12:20:00;;;;;;;6.90;3.30;;;13.60;44.50;;;;;;5061107;28;20032;-74
2022/03/19 12:22:34;;;;;;;5.65;2.72;;;13.60;44.80;;;;;;5075936;28;20079;-75
2022/03/19 12:25:16;;;;;;;5.70;2.63;;;13.40;45.30;;;;;;5073249;28;20024;-74
2022/03/19 12:27:52;;;;;;;6.10;2.42;;;13.10;46.00;;;;;;5068752;28;20102;-74
2022/03/19 12:30:19;;;;;;;11.38;4.50;;;13.30;46.30;;;;;;5071133;28;20043;-75
2022/03/19 12:32:54;;;;;;;11.45;4.13;;;13.40;46.50;;;;;;5077427;28;20032;-74
2022/03/19 12:35:23;;;;;;;7.35;4.43;;;13.30;46.60;;;;;;5075695;28;20040;-75
2022/03/19 12:37:58;;;;;;;11.75;4.88;;;13.20;46.70;;;;;;5067021;28;20043;-74
2022/03/19 12:40:26;;;;;;;15.37;4.37;;;12.80;47.20;;;;;;5065525;28;20028;-74
2022/03/19 12:42:59;;;;;;;19.63;6.20;;;12.80;48.40;;;;;;5071471;28;20035;-74
2022/03/19 12:45:42;;;;;;;6.25;2.92;;;12.60;47.90;;;;;;5075757;28;20102;-74
2022/03/19 12:48:12;;;;;;;9.65;3.63;;;12.70;47.70;;;;;;5076928;28;20033;-74
2022/03/19 12:50:41;;;;;;;8.90;3.45;;;12.80;47.50;;;;;;5068319;28;20152;-73
2022/03/19 12:53:07;;;;;;;7.07;2.65;;;12.90;47.20;;;;;;5046444;28;20032;-67
2022/03/19 12:55:33;;;;;;;7.10;2.53;;;12.70;47.70;;;;;;5067506;28;20586;-67
2022/03/19 12:58:03;;;;;;;9.68;2.80;;;12.40;48.00;;;;;;5073655;28;20063;-66
2022/03/19 13:00:30;;;;;;;10.93;3.60;;;12.20;48.70;;;;;;5074454;28;20044;-67
2022/03/19 13:02:56;;;;;;;9.27;4.10;;;12.00;49.80;;;;;;5070531;28;20039;-67
2022/03/19 13:05:22;;;;;;;9.25;4.55;;;12.00;50.20;;;;;;5070308;28;20032;-67
2022/03/19 13:08:06;;;;;;;8.75;4.55;;;12.00;50.10;;;;;;5072894;28;20056;-67
2022/03/19 13:10:49;;;;;;;8.77;4.07;;;12.20;49.80;;;;;;5069934;28;20122;-67
2022/03/19 13:13:16;;;;;;;13.10;5.03;;;12.40;50.00;;;;;;5061627;28;20749;-67